sensor_id;sensor_type;location;lat;lon;timestamp;temperature;humidity
4090;DHT22;2059;48.538;12.146;2022-09-02T00:00:47;16.00;99.90
4090;DHT22;2059;48.538;12.146;2022-09-02T00:05:49;16.00;99.90
4090;DHT22;2059;48.538;12.146;2022-09-02T00:10:52;15.80;99.90
4090;DHT22;2059;48.538;12.146;2022-09-02T00:15:54;15.90;99.90
4090;DHT22;2059;48.538;12.146;2022-09-02T00:20:57;15.90;99.90
4090;DHT22;2059;48.538;12.146;2022-09-02T00:26:01;15.80;99.90
4090;DHT22;2059;48.538;12.146;2022-09-02T00:31:02;15.80;99.90
4090;DHT22;2059;48.538;12.146;2022-09-02T00:36:05;15.70;99.90
4090;DHT22;2059;48.538;12.146;2022-09-02T00:41:10;15.50;99.90
4090;DHT22;2059;48.538;12.146;2022-09-02T00:46:14;15.50;99.90
4090;DHT22;2059;48.538;12.146;2022-09-02T00:51:16;15.60;99.90
4090;DHT22;2059;48.538;12.146;2022-09-02T00:56:23;15.60;99.90
4090;DHT22;2059;48.538;12.146;2022-09-02T01:01:26;15.40;99.90
4090;DHT22;2059;48.538;12.146;2022-09-02T01:06:29;15.50;99.90
4090;DHT22;2059;48.538;12.146;2022-09-02T01:11:38;15.40;99.90
4090;DHT22;2059;48.538;12.146;2022-09-02T01:16:43;15.40;99.90
4090;DHT22;2059;48.538;12.146;2022-09-02T01:21:47;15.20;99.90
4090;DHT22;2059;48.538;12.146;2022-09-02T01:26:52;15.10;99.90
4090;DHT22;2059;48.538;12.146;2022-09-02T01:31:54;15.10;99.90
4090;DHT22;2059;48.538;12.146;2022-09-02T01:36:57;15.10;99.90
4090;DHT22;2059;48.538;12.146;2022-09-02T01:41:59;15.00;99.90
4090;DHT22;2059;48.538;12.146;2022-09-02T01:47:02;15.00;99.90
4090;DHT22;2059;48.538;12.146;2022-09-02T01:52:06;15.10;99.90
4090;DHT22;2059;48.538;12.146;2022-09-02T01:57:08;15.10;99.90
4090;DHT22;2059;48.538;12.146;2022-09-02T02:02:10;14.90;99.90
4090;DHT22;2059;48.538;12.146;2022-09-02T02:07:15;15.00;99.90
4090;DHT22;2059;48.538;12.146;2022-09-02T02:12:18;15.00;99.90
4090;DHT22;2059;48.538;12.146;2022-09-02T02:17:20;15.00;99.90
4090;DHT22;2059;48.538;12.146;2022-09-02T02:22:24;15.00;99.90
4090;DHT22;2059;48.538;12.146;2022-09-02T02:27:26;15.00;99.90
4090;DHT22;2059;48.538;12.146;2022-09-02T02:32:28;15.10;99.90
4090;DHT22;2059;48.538;12.146;2022-09-02T02:37:33;14.90;99.90
4090;DHT22;2059;48.538;12.146;2022-09-02T02:42:35;14.90;99.90
4090;DHT22;2059;48.538;12.146;2022-09-02T02:47:38;14.90;99.90
4090;DHT22;2059;48.538;12.146;2022-09-02T02:52:42;14.80;99.90
4090;DHT22;2059;48.538;12.146;2022-09-02T02:57:44;14.90;99.90
4090;DHT22;2059;48.538;12.146;2022-09-02T03:02:47;14.80;99.90
4090;DHT22;2059;48.538;12.146;2022-09-02T03:07:50;14.70;99.90
4090;DHT22;2059;48.538;12.146;2022-09-02T03:12:52;14.70;99.90
4090;DHT22;2059;48.538;12.146;2022-09-02T03:17:55;14.70;99.90
4090;DHT22;2059;48.538;12.146;2022-09-02T03:22:58;14.80;99.90
4090;DHT22;2059;48.538;12.146;2022-09-02T03:28:01;14.80;99.90
4090;DHT22;2059;48.538;12.146;2022-09-02T03:33:04;14.70;99.90
4090;DHT22;2059;48.538;12.146;2022-09-02T03:38:08;14.70;99.90
4090;DHT22;2059;48.538;12.146;2022-09-02T03:43:10;14.70;99.90
4090;DHT22;2059;48.538;12.146;2022-09-02T03:48:13;14.60;99.90
4090;DHT22;2059;48.538;12.146;2022-09-02T03:53:17;14.60;99.90
4090;DHT22;2059;48.538;12.146;2022-09-02T03:58:19;14.40;99.90
4090;DHT22;2059;48.538;12.146;2022-09-02T04:03:21;14.50;99.90
4090;DHT22;2059;48.538;12.146;2022-09-02T04:08:25;14.50;99.90
4090;DHT22;2059;48.538;12.146;2022-09-02T04:13:27;14.50;99.90
4090;DHT22;2059;48.538;12.146;2022-09-02T04:18:30;14.50;99.90
4090;DHT22;2059;48.538;12.146;2022-09-02T04:23:34;14.60;99.90
4090;DHT22;2059;48.538;12.146;2022-09-02T04:28:36;14.60;99.90
4090;DHT22;2059;48.538;12.146;2022-09-02T04:33:39;14.40;99.90
4090;DHT22;2059;48.538;12.146;2022-09-02T04:38:42;14.30;99.90
4090;DHT22;2059;48.538;12.146;2022-09-02T04:43:44;14.40;99.90
4090;DHT22;2059;48.538;12.146;2022-09-02T04:48:46;14.40;99.90
4090;DHT22;2059;48.538;12.146;2022-09-02T04:53:51;14.50;99.90
4090;DHT22;2059;48.538;12.146;2022-09-02T04:58:54;14.40;99.90
4090;DHT22;2059;48.538;12.146;2022-09-02T05:03:56;14.40;99.90
4090;DHT22;2059;48.538;12.146;2022-09-02T05:09:00;14.40;99.90
4090;DHT22;2059;48.538;12.146;2022-09-02T05:14:05;14.60;99.90
4090;DHT22;2059;48.538;12.146;2022-09-02T05:19:08;14.50;99.90
4090;DHT22;2059;48.538;12.146;2022-09-02T05:24:13;14.50;99.90
4090;DHT22;2059;48.538;12.146;2022-09-02T05:29:16;14.50;99.90
4090;DHT22;2059;48.538;12.146;2022-09-02T05:34:20;14.50;99.90
4090;DHT22;2059;48.538;12.146;2022-09-02T05:39:23;14.60;99.90
4090;DHT22;2059;48.538;12.146;2022-09-02T05:44:25;14.70;99.90
4090;DHT22;2059;48.538;12.146;2022-09-02T05:49:28;14.60;99.90
4090;DHT22;2059;48.538;12.146;2022-09-02T05:54:34;14.80;99.90
4090;DHT22;2059;48.538;12.146;2022-09-02T05:59:37;15.00;99.90
4090;DHT22;2059;48.538;12.146;2022-09-02T06:04:43;15.10;99.90
4090;DHT22;2059;48.538;12.146;2022-09-02T06:09:48;15.20;99.90
4090;DHT22;2059;48.538;12.146;2022-09-02T06:14:50;15.40;99.90
4090;DHT22;2059;48.538;12.146;2022-09-02T06:19:52;15.60;99.90
4090;DHT22;2059;48.538;12.146;2022-09-02T06:24:55;15.80;99.90
4090;DHT22;2059;48.538;12.146;2022-09-02T06:29:57;15.80;99.90
4090;DHT22;2059;48.538;12.146;2022-09-02T06:34:59;16.10;99.90
4090;DHT22;2059;48.538;12.146;2022-09-02T06:40:03;16.20;99.90
4090;DHT22;2059;48.538;12.146;2022-09-02T06:45:06;16.40;99.90
4090;DHT22;2059;48.538;12.146;2022-09-02T06:50:08;16.60;99.90
4090;DHT22;2059;48.538;12.146;2022-09-02T06:55:12;16.80;99.90
4090;DHT22;2059;48.538;12.146;2022-09-02T07:00:16;17.10;99.90
4090;DHT22;2059;48.538;12.146;2022-09-02T07:05:18;17.40;99.90
4090;DHT22;2059;48.538;12.146;2022-09-02T07:10:21;17.60;99.90
4090;DHT22;2059;48.538;12.146;2022-09-02T07:15:23;17.80;98.80
4090;DHT22;2059;48.538;12.146;2022-09-02T07:20:26;18.10;98.60
4090;DHT22;2059;48.538;12.146;2022-09-02T07:25:29;18.20;97.70
4090;DHT22;2059;48.538;12.146;2022-09-02T07:30:31;18.30;97.40
4090;DHT22;2059;48.538;12.146;2022-09-02T07:35:33;18.70;96.20
4090;DHT22;2059;48.538;12.146;2022-09-02T07:40:39;18.70;96.70
4090;DHT22;2059;48.538;12.146;2022-09-02T07:45:41;18.80;95.30
4090;DHT22;2059;48.538;12.146;2022-09-02T07:50:43;19.10;95.00
4090;DHT22;2059;48.538;12.146;2022-09-02T07:55:48;19.20;94.90
4090;DHT22;2059;48.538;12.146;2022-09-02T08:00:51;19.30;94.00
4090;DHT22;2059;48.538;12.146;2022-09-02T08:05:55;19.40;93.70
4090;DHT22;2059;48.538;12.146;2022-09-02T08:10:59;19.50;93.90
4090;DHT22;2059;48.538;12.146;2022-09-02T08:16:01;19.90;93.20
4090;DHT22;2059;48.538;12.146;2022-09-02T08:21:03;20.10;92.20
4090;DHT22;2059;48.538;12.146;2022-09-02T08:26:07;20.20;92.70
4090;DHT22;2059;48.538;12.146;2022-09-02T08:31:10;20.30;92.40
4090;DHT22;2059;48.538;12.146;2022-09-02T08:36:13;20.70;91.20
4090;DHT22;2059;48.538;12.146;2022-09-02T08:41:22;20.80;91.70
4090;DHT22;2059;48.538;12.146;2022-09-02T08:46:25;21.00;90.10
4090;DHT22;2059;48.538;12.146;2022-09-02T08:51:32;21.10;90.50
4090;DHT22;2059;48.538;12.146;2022-09-02T08:56:37;21.30;88.30
4090;DHT22;2059;48.538;12.146;2022-09-02T09:01:44;21.40;87.00
4090;DHT22;2059;48.538;12.146;2022-09-02T09:07:09;21.60;85.10
4090;DHT22;2059;48.538;12.146;2022-09-02T09:12:20;21.70;85.40
4090;DHT22;2059;48.538;12.146;2022-09-02T09:17:28;21.80;80.50
4090;DHT22;2059;48.538;12.146;2022-09-02T09:22:34;22.10;82.70
4090;DHT22;2059;48.538;12.146;2022-09-02T09:27:39;22.10;82.80
4090;DHT22;2059;48.538;12.146;2022-09-02T09:32:44;22.40;81.80
4090;DHT22;2059;48.538;12.146;2022-09-02T09:37:48;22.50;79.00
4090;DHT22;2059;48.538;12.146;2022-09-02T09:42:54;22.40;80.10
4090;DHT22;2059;48.538;12.146;2022-09-02T09:48:21;22.70;79.50
4090;DHT22;2059;48.538;12.146;2022-09-02T09:53:28;22.90;79.20
4090;DHT22;2059;48.538;12.146;2022-09-02T09:58:35;23.00;77.10
4090;DHT22;2059;48.538;12.146;2022-09-02T10:03:48;23.10;74.70
4090;DHT22;2059;48.538;12.146;2022-09-02T10:08:52;23.30;73.20
4090;DHT22;2059;48.538;12.146;2022-09-02T10:13:59;23.30;73.10
4090;DHT22;2059;48.538;12.146;2022-09-02T10:19:08;23.40;72.00
4090;DHT22;2059;48.538;12.146;2022-09-02T10:24:23;23.50;72.60
4090;DHT22;2059;48.538;12.146;2022-09-02T10:29:41;23.70;74.80
4090;DHT22;2059;48.538;12.146;2022-09-02T10:34:56;23.80;72.40
4090;DHT22;2059;48.538;12.146;2022-09-02T10:40:09;24.20;72.80
4090;DHT22;2059;48.538;12.146;2022-09-02T10:45:30;24.20;71.70
4090;DHT22;2059;48.538;12.146;2022-09-02T10:50:39;24.20;70.10
4090;DHT22;2059;48.538;12.146;2022-09-02T10:55:50;24.30;71.60
4090;DHT22;2059;48.538;12.146;2022-09-02T11:00:56;24.30;70.40
4090;DHT22;2059;48.538;12.146;2022-09-02T11:06:03;24.30;68.10
4090;DHT22;2059;48.538;12.146;2022-09-02T11:11:09;24.40;68.20
4090;DHT22;2059;48.538;12.146;2022-09-02T11:16:17;24.50;68.70
4090;DHT22;2059;48.538;12.146;2022-09-02T11:21:29;24.60;66.40
4090;DHT22;2059;48.538;12.146;2022-09-02T11:26:35;24.70;67.80
4090;DHT22;2059;48.538;12.146;2022-09-02T11:31:43;24.60;68.10
4090;DHT22;2059;48.538;12.146;2022-09-02T11:36:47;24.50;67.30
4090;DHT22;2059;48.538;12.146;2022-09-02T11:41:58;24.60;70.50
4090;DHT22;2059;48.538;12.146;2022-09-02T11:52:55;24.70;66.80
4090;DHT22;2059;48.538;12.146;2022-09-02T11:58:01;24.70;65.60
4090;DHT22;2059;48.538;12.146;2022-09-02T12:03:17;24.80;65.50
4090;DHT22;2059;48.538;12.146;2022-09-02T12:08:56;24.90;67.20
4090;DHT22;2059;48.538;12.146;2022-09-02T12:13:58;24.80;66.50
4090;DHT22;2059;48.538;12.146;2022-09-02T12:19:17;24.90;69.10
4090;DHT22;2059;48.538;12.146;2022-09-02T12:24:25;24.80;65.90
4090;DHT22;2059;48.538;12.146;2022-09-02T12:29:31;24.70;67.00
4090;DHT22;2059;48.538;12.146;2022-09-02T12:34:55;24.90;68.20
4090;DHT22;2059;48.538;12.146;2022-09-02T12:40:01;24.90;67.50
4090;DHT22;2059;48.538;12.146;2022-09-02T12:45:12;24.90;65.90
4090;DHT22;2059;48.538;12.146;2022-09-02T12:50:24;24.90;68.40
4090;DHT22;2059;48.538;12.146;2022-09-02T12:55:28;25.00;67.00
4090;DHT22;2059;48.538;12.146;2022-09-02T13:00:34;25.10;67.10
4090;DHT22;2059;48.538;12.146;2022-09-02T13:05:52;25.00;67.80
4090;DHT22;2059;48.538;12.146;2022-09-02T13:11:30;24.80;65.90
4090;DHT22;2059;48.538;12.146;2022-09-02T13:16:38;24.80;69.00
4090;DHT22;2059;48.538;12.146;2022-09-02T13:22:08;24.70;65.00
4090;DHT22;2059;48.538;12.146;2022-09-02T13:27:27;24.60;65.60
4090;DHT22;2059;48.538;12.146;2022-09-02T13:32:37;24.50;68.00
4090;DHT22;2059;48.538;12.146;2022-09-02T13:37:42;24.50;67.80
4090;DHT22;2059;48.538;12.146;2022-09-02T13:42:48;24.50;65.00
4090;DHT22;2059;48.538;12.146;2022-09-02T13:47:52;24.40;65.60
4090;DHT22;2059;48.538;12.146;2022-09-02T13:52:57;24.30;64.00
4090;DHT22;2059;48.538;12.146;2022-09-02T13:58:02;24.20;67.50
4090;DHT22;2059;48.538;12.146;2022-09-02T14:03:06;24.10;66.20
4090;DHT22;2059;48.538;12.146;2022-09-02T14:08:13;24.00;65.80
4090;DHT22;2059;48.538;12.146;2022-09-02T14:13:16;24.10;65.70
4090;DHT22;2059;48.538;12.146;2022-09-02T14:18:19;24.30;67.00
4090;DHT22;2059;48.538;12.146;2022-09-02T14:23:23;24.20;67.60
4090;DHT22;2059;48.538;12.146;2022-09-02T14:28:27;24.10;66.40
4090;DHT22;2059;48.538;12.146;2022-09-02T14:33:40;24.00;66.60
4090;DHT22;2059;48.538;12.146;2022-09-02T14:38:52;24.10;66.20
4090;DHT22;2059;48.538;12.146;2022-09-02T14:43:57;24.00;68.00
4090;DHT22;2059;48.538;12.146;2022-09-02T14:49:02;24.00;67.40
4090;DHT22;2059;48.538;12.146;2022-09-02T14:54:06;24.00;65.10
4090;DHT22;2059;48.538;12.146;2022-09-02T14:59:09;24.10;65.70
4090;DHT22;2059;48.538;12.146;2022-09-02T15:04:11;23.80;68.20
4090;DHT22;2059;48.538;12.146;2022-09-02T15:09:15;24.00;68.00
4090;DHT22;2059;48.538;12.146;2022-09-02T15:14:17;24.00;66.00
4090;DHT22;2059;48.538;12.146;2022-09-02T15:19:19;23.90;68.60
4090;DHT22;2059;48.538;12.146;2022-09-02T15:24:22;23.90;67.80
4090;DHT22;2059;48.538;12.146;2022-09-02T15:29:24;24.00;65.40
4090;DHT22;2059;48.538;12.146;2022-09-02T15:34:26;24.10;65.20
4090;DHT22;2059;48.538;12.146;2022-09-02T15:39:29;24.10;68.30
4090;DHT22;2059;48.538;12.146;2022-09-02T15:44:31;24.20;65.10
4090;DHT22;2059;48.538;12.146;2022-09-02T15:49:32;24.10;65.50
4090;DHT22;2059;48.538;12.146;2022-09-02T15:54:36;23.90;65.80
4090;DHT22;2059;48.538;12.146;2022-09-02T15:59:38;23.70;65.60
4090;DHT22;2059;48.538;12.146;2022-09-02T16:04:40;23.50;64.50
4090;DHT22;2059;48.538;12.146;2022-09-02T16:09:43;23.40;64.70
4090;DHT22;2059;48.538;12.146;2022-09-02T16:14:46;23.30;66.40
4090;DHT22;2059;48.538;12.146;2022-09-02T16:19:50;23.30;67.10
4090;DHT22;2059;48.538;12.146;2022-09-02T16:24:54;23.20;67.30
4090;DHT22;2059;48.538;12.146;2022-09-02T16:29:56;23.10;67.50
4090;DHT22;2059;48.538;12.146;2022-09-02T16:34:58;22.90;65.00
4090;DHT22;2059;48.538;12.146;2022-09-02T16:40:01;22.90;65.60
4090;DHT22;2059;48.538;12.146;2022-09-02T16:45:04;22.70;66.60
4090;DHT22;2059;48.538;12.146;2022-09-02T16:50:06;22.60;66.10
4090;DHT22;2059;48.538;12.146;2022-09-02T16:55:10;22.50;66.10
4090;DHT22;2059;48.538;12.146;2022-09-02T17:00:17;22.30;67.20
4090;DHT22;2059;48.538;12.146;2022-09-02T17:05:19;22.30;67.40
4090;DHT22;2059;48.538;12.146;2022-09-02T17:10:22;22.20;68.70
4090;DHT22;2059;48.538;12.146;2022-09-02T17:15:24;22.00;69.20
4090;DHT22;2059;48.538;12.146;2022-09-02T17:20:26;22.00;68.70
4090;DHT22;2059;48.538;12.146;2022-09-02T17:25:30;22.00;69.60
4090;DHT22;2059;48.538;12.146;2022-09-02T17:30:31;21.80;68.60
4090;DHT22;2059;48.538;12.146;2022-09-02T17:35:33;21.60;70.80
4090;DHT22;2059;48.538;12.146;2022-09-02T17:40:37;21.50;70.70
4090;DHT22;2059;48.538;12.146;2022-09-02T17:46:05;21.40;71.20
4090;DHT22;2059;48.538;12.146;2022-09-02T17:51:07;21.30;71.80
4090;DHT22;2059;48.538;12.146;2022-09-02T17:56:19;21.20;73.10
4090;DHT22;2059;48.538;12.146;2022-09-02T18:01:26;21.20;73.30
4090;DHT22;2059;48.538;12.146;2022-09-02T18:06:30;21.10;74.40
4090;DHT22;2059;48.538;12.146;2022-09-02T18:11:36;21.10;74.20
4090;DHT22;2059;48.538;12.146;2022-09-02T18:16:46;20.80;74.00
4090;DHT22;2059;48.538;12.146;2022-09-02T18:22:00;20.80;75.50
4090;DHT22;2059;48.538;12.146;2022-09-02T18:27:13;20.60;75.60
4090;DHT22;2059;48.538;12.146;2022-09-02T18:32:26;20.50;76.70
4090;DHT22;2059;48.538;12.146;2022-09-02T18:37:41;20.40;77.20
4090;DHT22;2059;48.538;12.146;2022-09-02T18:42:51;20.30;78.50
4090;DHT22;2059;48.538;12.146;2022-09-02T18:47:58;20.20;78.60
4090;DHT22;2059;48.538;12.146;2022-09-02T18:53:01;20.10;79.40
4090;DHT22;2059;48.538;12.146;2022-09-02T18:58:10;20.10;79.80
4090;DHT22;2059;48.538;12.146;2022-09-02T19:03:12;19.90;80.20
4090;DHT22;2059;48.538;12.146;2022-09-02T19:08:17;19.70;80.10
4090;DHT22;2059;48.538;12.146;2022-09-02T19:13:42;19.70;80.80
4090;DHT22;2059;48.538;12.146;2022-09-02T19:18:47;19.70;81.20
4090;DHT22;2059;48.538;12.146;2022-09-02T19:23:49;19.40;82.10
4090;DHT22;2059;48.538;12.146;2022-09-02T19:28:53;19.60;82.30
4090;DHT22;2059;48.538;12.146;2022-09-02T19:33:59;19.40;82.20
4090;DHT22;2059;48.538;12.146;2022-09-02T19:39:02;19.40;82.40
4090;DHT22;2059;48.538;12.146;2022-09-02T19:44:06;19.20;83.50
4090;DHT22;2059;48.538;12.146;2022-09-02T19:49:09;19.20;83.20
4090;DHT22;2059;48.538;12.146;2022-09-02T19:54:12;19.10;84.40
4090;DHT22;2059;48.538;12.146;2022-09-02T19:59:16;19.20;84.40
4090;DHT22;2059;48.538;12.146;2022-09-02T20:04:17;19.00;84.80
4090;DHT22;2059;48.538;12.146;2022-09-02T20:09:19;18.90;85.50
4090;DHT22;2059;48.538;12.146;2022-09-02T20:14:23;18.80;86.00
4090;DHT22;2059;48.538;12.146;2022-09-02T20:19:25;18.80;86.40
4090;DHT22;2059;48.538;12.146;2022-09-02T20:24:29;18.70;87.00
4090;DHT22;2059;48.538;12.146;2022-09-02T20:29:49;18.70;87.40
4090;DHT22;2059;48.538;12.146;2022-09-02T20:35:02;18.70;87.80
4090;DHT22;2059;48.538;12.146;2022-09-02T20:40:31;18.60;87.60
4090;DHT22;2059;48.538;12.146;2022-09-02T20:45:38;18.60;88.00
4090;DHT22;2059;48.538;12.146;2022-09-02T20:50:46;18.60;86.70
4090;DHT22;2059;48.538;12.146;2022-09-02T20:55:53;18.50;87.20
4090;DHT22;2059;48.538;12.146;2022-09-02T21:01:02;18.40;88.00
4090;DHT22;2059;48.538;12.146;2022-09-02T21:06:08;18.40;88.90
4090;DHT22;2059;48.538;12.146;2022-09-02T21:11:13;18.30;89.30
4090;DHT22;2059;48.538;12.146;2022-09-02T21:16:22;18.20;89.60
4090;DHT22;2059;48.538;12.146;2022-09-02T21:21:29;18.20;89.10
4090;DHT22;2059;48.538;12.146;2022-09-02T21:26:39;18.10;89.90
4090;DHT22;2059;48.538;12.146;2022-09-02T21:31:47;18.10;90.40
4090;DHT22;2059;48.538;12.146;2022-09-02T21:36:52;18.00;90.50
4090;DHT22;2059;48.538;12.146;2022-09-02T21:42:02;17.90;90.70
4090;DHT22;2059;48.538;12.146;2022-09-02T21:47:16;17.70;90.90
4090;DHT22;2059;48.538;12.146;2022-09-02T21:52:34;17.70;91.10
4090;DHT22;2059;48.538;12.146;2022-09-02T21:57:57;17.70;91.50
4090;DHT22;2059;48.538;12.146;2022-09-02T22:03:12;17.60;91.80
4090;DHT22;2059;48.538;12.146;2022-09-02T22:08:22;17.50;91.90
4090;DHT22;2059;48.538;12.146;2022-09-02T22:13:29;17.40;92.10
4090;DHT22;2059;48.538;12.146;2022-09-02T22:18:38;17.40;92.10
4090;DHT22;2059;48.538;12.146;2022-09-02T22:23:41;17.30;92.50
4090;DHT22;2059;48.538;12.146;2022-09-02T22:28:47;17.20;92.60
4090;DHT22;2059;48.538;12.146;2022-09-02T22:33:52;17.10;92.90
4090;DHT22;2059;48.538;12.146;2022-09-02T22:38:58;17.00;93.10
4090;DHT22;2059;48.538;12.146;2022-09-02T22:44:04;17.00;93.10
4090;DHT22;2059;48.538;12.146;2022-09-02T22:49:10;17.00;93.60
4090;DHT22;2059;48.538;12.146;2022-09-02T22:54:30;17.00;93.70
4090;DHT22;2059;48.538;12.146;2022-09-02T22:59:43;16.80;93.90
4090;DHT22;2059;48.538;12.146;2022-09-02T23:05:02;16.80;94.00
4090;DHT22;2059;48.538;12.146;2022-09-02T23:10:17;16.80;93.70
4090;DHT22;2059;48.538;12.146;2022-09-02T23:15:23;16.80;94.00
4090;DHT22;2059;48.538;12.146;2022-09-02T23:20:37;16.50;94.60
4090;DHT22;2059;48.538;12.146;2022-09-02T23:26:03;16.40;94.50
4090;DHT22;2059;48.538;12.146;2022-09-02T23:31:15;16.40;95.00
4090;DHT22;2059;48.538;12.146;2022-09-02T23:36:31;16.30;95.60
4090;DHT22;2059;48.538;12.146;2022-09-02T23:41:35;16.20;96.00
4090;DHT22;2059;48.538;12.146;2022-09-02T23:46:50;16.10;96.40
4090;DHT22;2059;48.538;12.146;2022-09-02T23:52:03;16.10;96.60
4090;DHT22;2059;48.538;12.146;2022-09-02T23:57:19;16.10;96.90
